Time;durP1;ratioP1;P1;durP2;ratioP2;P2;SDS_P1;SDS_P2;PMS_P1;PMS_P2;Temp;Humidity;BMP_temperature;BMP_pressure;BME280_temperature;BME280_humidity;BME280_pressure;Samples;Min_cycle;Max_cycle;Signal;HPM_P1;HPM_P2
2023/04/16 00:01:00;;;;;;;9.07;5.00;;;5.20;99.90;;;;;;5092528;28;20045;-47
2023/04/16 00:03:27;;;;;;;14.70;7.60;;;5.20;99.90;;;;;;5069073;28;20044;-47
2023/04/16 00:05:58;;;;;;;18.35;7.53;;;5.20;99.90;;;;;;5080621;28;20127;-47
2023/04/16 00:08:24;;;;;;;14.98;7.90;;;5.20;99.90;;;;;;5090838;28;20480;-47
2023/04/16 00:10:54;;;;;;;13.05;7.78;;;5.20;99.90;;;;;;5091066;28;20542;-47
2023/04/16 00:13:21;;;;;;;12.95;7.35;;;5.20;99.90;;;;;;5085082;28;20436;-47
2023/04/16 00:15:48;;;;;;;12.82;7.85;;;5.20;99.90;;;;;;5089912;28;20054;-47
2023/04/16 00:18:15;;;;;;;8.68;5.57;;;5.20;99.90;;;;;;5091708;28;20493;-46
2023/04/16 00:20:41;;;;;;;11.18;7.93;;;5.20;99.90;;;;;;5089572;28;20113;-47
2023/04/16 00:23:08;;;;;;;14.27;8.35;;;5.20;99.90;;;;;;5081406;28;20048;-47
2023/04/16 00:25:35;;;;;;;13.10;8.50;;;5.20;99.90;;;;;;5090885;28;20043;-47
2023/04/16 00:28:04;;;;;;;16.08;8.20;;;5.20;99.90;;;;;;5090799;28;20062;-47
2023/04/16 00:30:31;;;;;;;15.85;8.73;;;5.20;99.90;;;;;;5063854;28;20075;-47
2023/04/16 00:32:57;;;;;;;12.35;8.50;;;5.20;99.90;;;;;;5068523;28;20097;-47
2023/04/16 00:35:24;;;;;;;12.80;8.13;;;5.20;99.90;;;;;;5091862;28;20044;-46
2023/04/16 00:37:51;;;;;;;12.98;8.30;;;5.20;99.90;;;;;;5070474;28;20140;-48
2023/04/16 00:40:18;;;;;;;15.32;8.98;;;5.10;99.90;;;;;;5080942;28;20071;-47
2023/04/16 00:42:45;;;;;;;15.05;8.93;;;5.10;99.90;;;;;;5092331;28;20119;-47
2023/04/16 00:45:12;;;;;;;14.98;9.15;;;5.20;99.90;;;;;;5069362;28;20455;-47
2023/04/16 00:47:39;;;;;;;15.05;8.85;;;5.10;99.90;;;;;;5076423;28;20079;-47
2023/04/16 00:50:06;;;;;;;12.98;8.07;;;5.20;99.90;;;;;;5085442;28;20071;-47
2023/04/16 00:52:34;;;;;;;15.45;8.73;;;5.20;99.90;;;;;;5090058;28;20078;-47
2023/04/16 00:55:00;;;;;;;16.67;8.38;;;5.20;99.90;;;;;;5063033;28;20090;-48
2023/04/16 00:57:27;;;;;;;12.75;8.73;;;5.20;99.90;;;;;;5088424;28;20040;-47
2023/04/16 00:59:55;;;;;;;14.65;9.48;;;5.10;99.90;;;;;;5088232;28;20044;-46
2023/04/16 01:02:22;;;;;;;15.48;8.93;;;5.10;99.90;;;;;;5088419;28;20070;-46
2023/04/16 01:04:49;;;;;;;;;;;5.10;99.90;;;;;;5070048;28;20043;-47
2023/04/16 01:07:16;;;;;;;16.50;10.07;;;5.10;99.90;;;;;;5091057;28;20354;-47
2023/04/16 01:09:43;;;;;;;15.18;9.48;;;5.10;99.90;;;;;;5090393;28;20040;-47
2023/04/16 01:12:10;;;;;;;17.25;10.10;;;5.10;99.90;;;;;;5084883;28;20511;-47
2023/04/16 01:14:36;;;;;;;15.90;10.23;;;5.10;99.90;;;;;;5073006;28;20109;-47
2023/04/16 01:17:03;;;;;;;18.40;10.73;;;5.10;99.90;;;;;;5073078;28;20097;-46
2023/04/16 01:19:30;;;;;;;15.35;9.23;;;5.10;99.90;;;;;;5085962;28;20036;-46
2023/04/16 01:21:57;;;;;;;16.38;9.75;;;5.10;99.90;;;;;;5087393;28;20054;-46
2023/04/16 01:24:24;;;;;;;;;;;5.10;99.90;;;;;;5073282;28;20048;-47
2023/04/16 01:26:51;;;;;;;16.40;10.05;;;5.10;99.90;;;;;;5072715;28;20397;-46
2023/04/16 01:29:18;;;;;;;15.85;10.35;;;5.10;99.90;;;;;;5085534;28;20400;-46
2023/04/16 01:31:47;;;;;;;13.15;8.48;;;5.10;99.90;;;;;;5070763;28;20040;-47
2023/04/16 01:34:35;;;;;;;16.10;9.30;;;5.10;99.90;;;;;;5070794;28;20070;-47
2023/04/16 01:37:02;;;;;;;14.95;9.63;;;5.10;99.90;;;;;;5056599;28;20052;-47
2023/04/16 01:39:29;;;;;;;13.27;8.20;;;5.10;99.90;;;;;;5089432;28;20097;-47
2023/04/16 01:41:56;;;;;;;;;;;5.10;99.90;;;;;;5068527;28;20044;-47
2023/04/16 01:44:24;;;;;;;15.27;9.70;;;5.10;99.90;;;;;;5062818;28;19920;-47
2023/04/16 01:46:51;;;;;;;17.75;10.50;;;5.10;99.90;;;;;;5079266;28;20095;-47
2023/04/16 01:49:17;;;;;;;16.35;9.38;;;5.10;99.90;;;;;;5082473;28;20048;-47
2023/04/16 01:51:44;;;;;;;15.52;9.30;;;5.10;99.90;;;;;;5064719;28;20098;-47
2023/04/16 01:54:11;;;;;;;15.65;9.35;;;5.10;99.90;;;;;;5053070;28;20049;-47
2023/04/16 01:56:38;;;;;;;16.30;8.57;;;5.10;99.90;;;;;;5052612;28;20044;-47
2023/04/16 01:59:05;;;;;;;15.77;9.18;;;5.10;99.90;;;;;;5053402;28;20045;-46
2023/04/16 02:01:37;;;;;;;17.92;10.65;;;5.10;99.90;;;;;;5068149;28;20040;-47
2023/04/16 02:04:04;;;;;;;14.93;10.18;;;5.00;99.90;;;;;;5090457;28;20044;-49
2023/04/16 02:06:31;;;;;;;18.10;10.70;;;5.00;99.90;;;;;;5090400;28;20131;-47
2023/04/16 02:08:58;;;;;;;16.27;9.63;;;5.00;99.90;;;;;;5079053;28;20086;-47
2023/04/16 02:11:25;;;;;;;20.83;11.27;;;5.00;99.90;;;;;;5070896;28;20439;-47
2023/04/16 02:13:52;;;;;;;19.52;11.77;;;5.00;99.90;;;;;;5052342;28;20140;-46
2023/04/16 02:16:19;;;;;;;19.65;12.18;;;5.10;99.90;;;;;;5052935;28;20048;-46
2023/04/16 02:18:58;;;;;;;23.38;13.18;;;5.10;99.90;;;;;;5061671;28;20106;-47
2023/04/16 02:21:28;;;;;;;20.67;12.05;;;5.10;99.90;;;;;;5089997;28;20078;-47
2023/04/16 02:23:55;;;;;;;20.65;11.93;;;5.10;99.90;;;;;;5073043;28;20048;-46
2023/04/16 02:26:26;;;;;;;19.95;12.10;;;5.10;99.90;;;;;;5072754;28;20052;-48
2023/04/16 02:28:56;;;;;;;19.83;12.20;;;5.10;99.90;;;;;;5052806;28;20040;-46
2023/04/16 02:31:30;;;;;;;19.90;11.18;;;5.10;99.90;;;;;;5072892;28;20056;-47
2023/04/16 02:33:57;;;;;;;;;;;5.10;99.90;;;;;;5062692;28;20045;-47
2023/04/16 02:36:24;;;;;;;23.02;12.20;;;5.10;99.90;;;;;;5070821;28;19920;-46
2023/04/16 02:38:53;;;;;;;20.17;11.85;;;5.10;99.90;;;;;;5052196;28;20044;-47
2023/04/16 02:41:20;;;;;;;21.75;12.13;;;5.10;99.90;;;;;;5053585;28;20044;-47
2023/04/16 02:43:47;;;;;;;20.92;11.25;;;5.10;99.90;;;;;;5074130;28;20074;-47
2023/04/16 02:46:13;;;;;;;18.92;11.27;;;5.10;99.90;;;;;;5074164;28;20051;-47
2023/04/16 02:48:40;;;;;;;19.25;10.73;;;5.10;99.90;;;;;;5073475;28;20098;-47
2023/04/16 02:51:07;;;;;;;17.90;10.07;;;5.10;99.90;;;;;;5075188;28;22310;-47
2023/04/16 02:53:34;;;;;;;16.05;8.57;;;5.10;99.90;;;;;;5060853;28;20036;-47
2023/04/16 02:56:01;;;;;;;13.23;8.18;;;5.10;99.90;;;;;;5072263;28;20048;-47
2023/04/16 02:58:28;;;;;;;12.18;7.65;;;5.10;99.90;;;;;;5075185;28;20036;-47
2023/04/16 03:00:54;;;;;;;13.98;8.05;;;5.10;99.90;;;;;;5071738;28;20033;-46
2023/04/16 03:03:21;;;;;;;16.73;8.10;;;5.10;99.90;;;;;;5060571;28;20053;-47
2023/04/16 03:06:39;;;;;;;15.63;8.70;;;5.10;99.90;;;;;;5076522;22;20044;-47
2023/04/16 03:09:31;;;;;;;13.63;8.00;;;5.00;99.90;;;;;;5071378;28;20060;-46
2023/04/16 03:11:57;;;;;;;12.75;8.20;;;5.00;99.90;;;;;;5050226;28;20041;-46
2023/04/16 03:14:24;;;;;;;12.27;8.00;;;5.10;99.90;;;;;;5051234;28;20045;-46
2023/04/16 03:16:51;;;;;;;9.27;5.78;;;5.10;99.90;;;;;;5058095;28;20103;-46
2023/04/16 03:19:18;;;;;;;6.97;3.90;;;5.10;99.90;;;;;;5050483;28;20033;-46
2023/04/16 03:21:44;;;;;;;6.40;3.70;;;5.10;99.90;;;;;;5054847;28;20076;-46
2023/04/16 03:24:12;;;;;;;6.85;3.58;;;5.10;99.90;;;;;;5055011;28;20037;-46
2023/04/16 03:26:39;;;;;;;;;;;5.10;99.90;;;;;;5031365;28;20095;-46
2023/04/16 03:29:06;;;;;;;6.60;3.97;;;5.10;99.90;;;;;;5043051;28;20388;-47
2023/04/16 03:31:33;;;;;;;;;;;5.00;99.90;;;;;;5050310;28;20067;-46
2023/04/16 03:34:00;;;;;;;7.97;4.40;;;5.00;99.90;;;;;;5043797;28;20039;-46
2023/04/16 03:36:27;;;;;;;6.97;4.88;;;5.00;99.90;;;;;;5035878;28;20045;-45
2023/04/16 03:38:55;;;;;;;10.05;4.78;;;5.00;99.90;;;;;;5035348;28;20472;-45
2023/04/16 03:41:22;;;;;;;8.18;4.95;;;5.00;99.90;;;;;;5035887;28;20072;-48
2023/04/16 03:43:49;;;;;;;8.13;4.15;;;5.00;99.90;;;;;;5045451;28;20292;-46
2023/04/16 03:46:15;;;;;;;8.55;4.88;;;5.00;99.90;;;;;;5035796;28;20041;-47
2023/04/16 03:48:42;;;;;;;26.00;5.82;;;5.00;99.90;;;;;;5035131;28;20059;-46
2023/04/16 03:51:09;;;;;;;12.13;4.90;;;5.00;99.90;;;;;;5051933;28;20045;-46
2023/04/16 03:53:37;;;;;;;8.77;5.10;;;5.00;99.90;;;;;;5050624;28;20033;-47
2023/04/16 03:56:04;;;;;;;11.50;5.97;;;5.00;99.90;;;;;;5035479;28;20057;-47
2023/04/16 03:58:31;;;;;;;14.98;6.68;;;5.00;99.90;;;;;;5034734;28;20068;-47
2023/04/16 04:00:57;;;;;;;9.70;5.70;;;5.00;99.90;;;;;;5042983;28;20040;-48
2023/04/16 04:03:25;;;;;;;21.70;10.10;;;5.00;99.90;;;;;;5048122;28;20068;-46
2023/04/16 04:05:53;;;;;;;17.17;10.27;;;5.00;99.90;;;;;;5052244;28;20040;-47
2023/04/16 04:08:25;;;;;;;19.45;10.85;;;5.10;99.90;;;;;;5052786;28;20039;-47
2023/04/16 04:10:52;;;;;;;20.88;11.05;;;5.00;99.90;;;;;;5034700;28;20049;-47
2023/04/16 04:13:21;;;;;;;21.88;11.85;;;5.10;99.90;;;;;;5034998;28;20059;-47
2023/04/16 04:15:49;;;;;;;27.80;13.40;;;5.10;99.90;;;;;;5042690;28;20494;-47
2023/04/16 04:18:16;;;;;;;21.30;12.45;;;5.10;99.90;;;;;;5054750;28;20127;-47
2023/04/16 04:20:43;;;;;;;15.13;8.75;;;5.10;99.90;;;;;;5055102;28;20511;-47
2023/04/16 04:23:14;;;;;;;16.45;8.48;;;5.10;99.90;;;;;;5052474;28;20045;-47
2023/04/16 04:25:41;;;;;;;13.65;7.75;;;5.10;99.90;;;;;;5046284;28;20051;-48
2023/04/16 04:28:07;;;;;;;13.25;7.75;;;5.10;99.90;;;;;;5054932;28;20048;-46
2023/04/16 04:30:37;;;;;;;12.55;6.47;;;5.10;99.90;;;;;;5054845;28;20044;-47
2023/04/16 04:33:05;;;;;;;10.23;6.22;;;5.10;99.90;;;;;;5034475;28;20052;-47
2023/04/16 04:35:32;;;;;;;15.35;8.38;;;5.10;99.90;;;;;;5034536;28;20076;-48
2023/04/16 04:38:02;;;;;;;16.00;8.63;;;5.10;99.90;;;;;;5034230;28;20076;-46
2023/04/16 04:40:29;;;;;;;10.82;7.03;;;5.10;99.90;;;;;;5042112;28;20568;-47
2023/04/16 04:42:56;;;;;;;10.68;5.95;;;5.20;99.90;;;;;;5069621;28;20497;-45
2023/04/16 04:45:24;;;;;;;10.88;5.75;;;5.20;99.90;;;;;;5072457;28;20036;-47
2023/04/16 04:47:52;;;;;;;10.63;6.15;;;5.20;99.90;;;;;;5054535;28;20505;-47
2023/04/16 04:50:20;;;;;;;9.90;6.57;;;5.20;99.90;;;;;;5065583;28;20040;-47
2023/04/16 04:52:47;;;;;;;11.88;6.30;;;5.20;99.90;;;;;;5054336;28;20051;-47
2023/04/16 04:55:14;;;;;;;13.93;7.30;;;5.20;99.90;;;;;;5054412;28;20131;-49
2023/04/16 04:57:41;;;;;;;24.52;8.30;;;5.30;99.90;;;;;;5036141;28;20037;-47
2023/04/16 05:00:09;;;;;;;17.52;8.85;;;5.30;99.90;;;;;;5033329;28;20040;-47
2023/04/16 05:02:46;;;;;;;13.35;7.90;;;5.30;99.90;;;;;;5046597;28;20057;-46
2023/04/16 05:05:13;;;;;;;14.32;8.13;;;5.30;99.90;;;;;;5050945;28;20098;-48
2023/04/16 05:07:40;;;;;;;13.30;7.35;;;5.40;99.90;;;;;;5051790;28;20055;-47
2023/04/16 05:10:07;;;;;;;9.50;6.22;;;5.40;99.90;;;;;;5045157;28;20535;-47
2023/04/16 05:12:34;;;;;;;10.20;5.57;;;5.40;99.90;;;;;;5051953;28;20041;-47
2023/04/16 05:15:00;;;;;;;7.18;4.30;;;5.50;99.90;;;;;;5050714;28;20491;-47
2023/04/16 05:17:27;;;;;;;7.80;5.00;;;5.50;99.90;;;;;;5051756;28;20033;-47
2023/04/16 05:19:54;;;;;;;10.85;4.72;;;5.50;99.90;;;;;;5024077;28;20413;-46
2023/04/16 05:22:20;;;;;;;8.05;4.43;;;5.60;99.90;;;;;;5050787;28;20044;-46
2023/04/16 05:24:47;;;;;;;11.20;5.85;;;5.70;99.90;;;;;;5049959;28;20085;-48
2023/04/16 05:27:14;;;;;;;10.70;6.15;;;5.80;99.90;;;;;;5050774;28;20497;-47
2023/04/16 05:29:41;;;;;;;5.65;3.78;;;5.90;99.90;;;;;;5046931;28;20049;-46
2023/04/16 05:32:08;;;;;;;8.25;4.68;;;5.90;99.90;;;;;;5049789;28;20075;-46
2023/04/16 05:34:34;;;;;;;6.72;4.13;;;6.00;99.90;;;;;;5047472;28;20079;-47
2023/04/16 05:37:01;;;;;;;4.32;3.20;;;6.10;99.90;;;;;;5032085;28;20033;-46
2023/04/16 05:39:28;;;;;;;4.90;3.25;;;6.20;99.90;;;;;;5058471;28;20686;-47
2023/04/16 05:41:54;;;;;;;7.00;3.50;;;6.30;99.90;;;;;;5051467;28;20036;-47
2023/04/16 05:44:21;;;;;;;5.68;4.10;;;6.30;99.90;;;;;;5051212;28;20045;-46
2023/04/16 05:46:48;;;;;;;7.43;4.00;;;6.40;99.90;;;;;;5051222;28;20080;-47
2023/04/16 05:49:17;;;;;;;7.53;3.67;;;6.40;99.90;;;;;;5058722;28;20064;-47
2023/04/16 05:51:44;;;;;;;4.57;2.95;;;6.40;99.90;;;;;;5066882;28;20041;-46
2023/04/16 05:54:11;;;;;;;4.97;3.33;;;6.50;99.90;;;;;;5071367;28;20093;-47
2023/04/16 05:56:37;;;;;;;6.65;4.00;;;6.40;99.90;;;;;;5063431;28;20402;-47
2023/04/16 05:59:04;;;;;;;7.78;5.13;;;6.40;99.90;;;;;;5049112;28;20041;-47
2023/04/16 06:01:34;;;;;;;17.13;9.35;;;6.40;99.90;;;;;;5051246;28;20444;-46
2023/04/16 06:04:01;;;;;;;12.68;7.00;;;6.30;99.90;;;;;;5051374;28;20044;-47
2023/04/16 06:06:28;;;;;;;;;;;6.30;99.90;;;;;;5052843;28;20066;-46
2023/04/16 06:08:54;;;;;;;11.68;6.20;;;6.30;99.90;;;;;;5062319;28;19974;-46
2023/04/16 06:11:21;;;;;;;10.95;6.20;;;6.30;99.90;;;;;;5053404;28;20452;-47
2023/04/16 06:13:48;;;;;;;10.95;6.15;;;6.40;99.90;;;;;;5045048;28;20112;-47
2023/04/16 06:16:15;;;;;;;13.27;6.60;;;6.40;99.90;;;;;;5062954;28;20131;-47
2023/04/16 06:18:42;;;;;;;;;;;6.50;99.90;;;;;;5075257;28;20072;-47
2023/04/16 06:21:09;;;;;;;12.85;7.40;;;6.60;99.90;;;;;;5057475;28;20535;-48
2023/04/16 06:23:35;;;;;;;10.55;6.95;;;6.60;99.90;;;;;;5054006;28;20099;-47
2023/04/16 06:26:03;;;;;;;11.55;7.25;;;6.70;99.90;;;;;;5054865;28;20452;-47
2023/04/16 06:28:29;;;;;;;;;;;6.60;99.90;;;;;;5054681;28;20048;-46
2023/04/16 06:30:56;;;;;;;11.27;7.10;;;6.60;99.90;;;;;;5063498;28;19956;-47
2023/04/16 06:33:23;;;;;;;13.07;8.57;;;6.70;99.90;;;;;;5074875;28;20044;-47
2023/04/16 06:35:50;;;;;;;12.73;7.82;;;6.70;99.90;;;;;;5064233;28;20122;-47
2023/04/16 06:38:17;;;;;;;12.88;7.38;;;6.70;99.90;;;;;;5053982;28;20064;-47
2023/04/16 06:40:44;;;;;;;11.50;7.90;;;6.80;99.90;;;;;;5054231;28;20553;-47
2023/04/16 06:43:11;;;;;;;11.35;7.53;;;6.80;99.90;;;;;;5054311;28;20098;-47
2023/04/16 06:45:38;;;;;;;11.93;7.82;;;6.80;99.90;;;;;;5050260;28;20087;-47
2023/04/16 06:48:04;;;;;;;12.55;7.07;;;6.90;99.90;;;;;;5054622;28;20041;-49
2023/04/16 06:50:31;;;;;;;11.38;7.13;;;7.00;99.90;;;;;;5049015;28;20040;-48
2023/04/16 06:52:58;;;;;;;12.70;7.47;;;7.10;99.90;;;;;;5054343;28;20094;-46
2023/04/16 06:55:25;;;;;;;10.80;7.50;;;7.20;99.90;;;;;;5053483;28;20037;-47
2023/04/16 06:57:51;;;;;;;10.65;6.85;;;7.20;99.90;;;;;;5053692;28;20501;-46
2023/04/16 07:00:18;;;;;;;11.52;7.25;;;7.20;99.90;;;;;;5054125;28;20063;-47
2023/04/16 07:02:45;;;;;;;13.65;6.82;;;7.30;99.90;;;;;;5053469;28;20079;-47
2023/04/16 07:05:12;;;;;;;10.68;7.00;;;7.30;99.90;;;;;;5054453;28;20511;-46
2023/04/16 07:07:38;;;;;;;11.02;7.03;;;7.50;99.90;;;;;;5048901;28;20048;-47
2023/04/16 07:10:06;;;;;;;10.93;7.05;;;7.60;99.90;;;;;;5053716;28;20037;-47
2023/04/16 07:12:32;;;;;;;10.93;6.63;;;7.60;99.90;;;;;;5054140;28;20072;-48
2023/04/16 07:14:59;;;;;;;9.65;6.40;;;7.70;99.90;;;;;;5048969;28;20446;-47
2023/04/16 07:17:26;;;;;;;9.70;6.47;;;7.70;99.90;;;;;;5054229;28;20037;-47
2023/04/16 07:19:53;;;;;;;10.07;6.53;;;7.80;99.90;;;;;;5053179;28;20041;-47
2023/04/16 07:22:20;;;;;;;7.40;5.15;;;7.90;99.90;;;;;;5054306;28;20045;-47
2023/04/16 07:24:46;;;;;;;7.57;5.40;;;7.90;99.90;;;;;;5053172;28;20052;-47
2023/04/16 07:27:13;;;;;;;9.27;6.38;;;8.00;99.90;;;;;;5064777;28;20060;-47
2023/04/16 07:29:40;;;;;;;8.57;6.13;;;7.90;99.90;;;;;;5050322;28;20041;-46
2023/04/16 07:32:08;;;;;;;15.23;6.82;;;8.00;99.90;;;;;;5046240;28;20044;-46
2023/04/16 07:34:35;;;;;;;10.50;7.03;;;8.00;99.90;;;;;;5042102;28;20029;-46
2023/04/16 07:37:01;;;;;;;10.93;7.47;;;8.00;99.90;;;;;;5026254;28;20106;-46
2023/04/16 07:39:28;;;;;;;8.52;6.10;;;8.20;99.90;;;;;;5048644;28;20041;-48
2023/04/16 07:41:55;;;;;;;8.15;4.93;;;8.20;99.90;;;;;;5048749;28;20069;-47
2023/04/16 07:44:21;;;;;;;9.13;5.28;;;8.40;99.90;;;;;;5041576;28;20045;-47
2023/04/16 07:46:48;;;;;;;6.45;4.90;;;8.50;99.90;;;;;;5042747;28;20068;-47
2023/04/16 07:49:15;;;;;;;8.80;4.72;;;8.50;99.90;;;;;;5041705;28;20037;-47
2023/04/16 07:51:42;;;;;;;7.47;4.10;;;8.50;99.90;;;;;;5043976;28;20041;-47
2023/04/16 07:54:09;;;;;;;8.85;3.80;;;8.50;99.90;;;;;;5050594;28;20041;-47
2023/04/16 07:56:36;;;;;;;5.38;3.78;;;8.60;99.90;;;;;;5045362;28;20107;-47
2023/04/16 07:59:03;;;;;;;5.65;3.30;;;8.70;99.90;;;;;;5045263;28;20086;-47
2023/04/16 08:01:47;;;;;;;6.05;3.13;;;8.70;99.90;;;;;;5040973;28;20044;-47
2023/04/16 08:04:16;;;;;;;4.28;3.22;;;8.80;99.90;;;;;;5042315;28;20607;-47
2023/04/16 08:06:43;;;;;;;3.95;2.70;;;8.80;99.90;;;;;;5040625;28;20045;-47
2023/04/16 08:09:09;;;;;;;5.35;2.95;;;9.00;99.90;;;;;;5046927;28;20049;-47
2023/04/16 08:11:36;;;;;;;5.10;2.80;;;9.20;99.90;;;;;;5047760;28;20102;-48
2023/04/16 08:14:03;;;;;;;5.60;2.80;;;9.40;99.90;;;;;;5043463;28;20033;-47
2023/04/16 08:16:30;;;;;;;3.80;2.75;;;9.50;99.90;;;;;;5044234;28;20071;-47
2023/04/16 08:18:57;;;;;;;1.55;1.35;;;9.50;99.90;;;;;;5042148;28;20099;-47
2023/04/16 08:21:24;;;;;;;3.47;2.17;;;9.50;99.90;;;;;;5041084;28;20037;-47
2023/04/16 08:23:51;;;;;;;4.15;2.42;;;9.70;99.90;;;;;;5043113;28;20444;-48
2023/04/16 08:26:17;;;;;;;3.38;2.30;;;10.00;99.90;;;;;;5049056;28;20068;-48
2023/04/16 08:28:44;;;;;;;3.40;2.13;;;10.20;99.90;;;;;;5044569;28;20119;-48
2023/04/16 08:31:11;;;;;;;3.78;2.53;;;10.30;99.90;;;;;;5043128;28;20122;-48
2023/04/16 08:33:39;;;;;;;2.85;1.90;;;10.20;99.90;;;;;;5040386;28;20390;-48
2023/04/16 08:36:06;;;;;;;2.95;2.40;;;10.00;99.90;;;;;;5045647;28;20054;-47
2023/04/16 08:38:33;;;;;;;3.25;2.40;;;10.00;99.90;;;;;;5022428;28;20037;-48
2023/04/16 08:41:04;;;;;;;3.83;2.80;;;10.00;99.90;;;;;;5042869;28;20110;-48
2023/04/16 08:43:36;;;;;;;4.43;2.80;;;10.00;99.90;;;;;;5043878;28;20045;-47
2023/04/16 08:46:04;;;;;;;4.57;2.58;;;10.00;99.90;;;;;;5041231;28;20041;-47
2023/04/16 08:48:33;;;;;;;4.07;2.40;;;10.10;99.90;;;;;;5041347;28;20117;-49
2023/04/16 08:51:01;;;;;;;3.80;2.80;;;10.20;99.90;;;;;;5042919;28;20399;-47
2023/04/16 08:53:50;;;;;;;2.78;2.45;;;10.50;99.90;;;;;;5040172;28;20064;-47
2023/04/16 08:56:20;;;;;;;5.57;2.85;;;10.60;99.90;;;;;;5041857;28;20133;-47
2023/04/16 08:58:48;;;;;;;4.30;2.70;;;10.60;99.90;;;;;;5038824;28;20044;-47
2023/04/16 09:01:17;;;;;;;3.92;2.65;;;10.60;99.90;;;;;;5040336;28;20124;-48
2023/04/16 09:03:47;;;;;;;3.42;2.50;;;10.70;99.90;;;;;;5040557;28;20409;-47
2023/04/16 09:06:15;;;;;;;3.00;2.53;;;10.50;99.90;;;;;;5074851;22;20051;-48
2023/04/16 09:08:45;;;;;;;3.78;2.92;;;10.60;99.90;;;;;;5064401;28;20041;-48
2023/04/16 09:11:19;;;;;;;3.28;2.28;;;10.50;99.90;;;;;;5070306;28;20661;-48
2023/04/16 09:13:46;;;;;;;3.58;2.70;;;10.80;99.90;;;;;;5071519;28;20040;-48
2023/04/16 09:16:14;;;;;;;3.75;2.17;;;11.00;99.90;;;;;;5068379;28;20497;-50
2023/04/16 09:18:41;;;;;;;3.00;2.47;;;11.00;99.90;;;;;;5064606;28;20040;-50
2023/04/16 09:21:09;;;;;;;4.22;2.35;;;11.00;99.90;;;;;;5063722;28;20078;-48
2023/04/16 09:23:37;;;;;;;3.30;2.47;;;10.90;99.90;;;;;;5067279;28;20044;-49
2023/04/16 09:26:04;;;;;;;4.20;2.50;;;10.90;99.90;;;;;;5063620;28;20044;-49
2023/04/16 09:28:38;;;;;;;;;;;10.80;99.90;;;;;;5068355;28;20048;-48
2023/04/16 09:31:10;;;;;;;3.63;3.10;;;10.70;99.90;;;;;;5070981;28;19921;-46
2023/04/16 09:33:36;;;;;;;2.90;2.60;;;10.70;99.90;;;;;;5060421;28;20033;-48
2023/04/16 09:36:04;;;;;;;3.38;2.70;;;10.70;99.90;;;;;;5064178;28;20070;-48
2023/04/16 09:38:50;;;;;;;3.67;2.78;;;10.80;99.90;;;;;;5068662;28;20080;-48
2023/04/16 09:41:17;;;;;;;3.85;2.50;;;10.90;99.90;;;;;;5069639;28;20098;-46
2023/04/16 09:44:03;;;;;;;2.95;2.42;;;11.00;99.90;;;;;;5066474;28;20055;-49
2023/04/16 09:46:33;;;;;;;4.13;2.85;;;11.00;99.90;;;;;;5069758;28;20155;-49
2023/04/16 09:49:13;;;;;;;4.15;2.58;;;11.10;99.90;;;;;;5068197;28;20375;-48
2023/04/16 09:51:41;;;;;;;4.15;2.63;;;10.80;99.90;;;;;;5066060;28;20094;-48
2023/04/16 09:54:08;;;;;;;4.40;2.45;;;10.90;99.90;;;;;;5067467;28;20474;-47
2023/04/16 09:56:45;;;;;;;4.38;2.47;;;11.10;99.90;;;;;;5070260;28;20059;-52
2023/04/16 09:59:19;;;;;;;3.60;2.38;;;11.30;99.90;;;;;;5065583;28;20468;-47
2023/04/16 10:02:11;;;;;;;3.88;2.65;;;11.20;99.90;;;;;;5069996;28;20072;-47
2023/04/16 10:04:50;;;;;;;3.42;2.58;;;11.30;99.90;;;;;;5037130;28;20102;-50
2023/04/16 10:07:17;;;;;;;3.30;2.75;;;11.30;99.90;;;;;;5056466;28;20120;-47
2023/04/16 10:09:47;;;;;;;4.70;2.47;;;11.30;99.90;;;;;;5066898;28;20398;-46
2023/04/16 10:12:15;;;;;;;3.83;2.78;;;11.40;99.90;;;;;;5070801;28;20053;-45
2023/04/16 10:14:42;;;;;;;2.10;1.90;;;11.20;99.90;;;;;;5069943;28;20083;-51
2023/04/16 10:17:08;;;;;;;3.22;2.58;;;11.20;99.90;;;;;;5052141;28;20041;-46
2023/04/16 10:19:36;;;;;;;3.33;2.25;;;11.10;99.90;;;;;;5050480;28;20490;-49
2023/04/16 10:22:03;;;;;;;;;;;11.10;99.90;;;;;;5051044;28;20044;-47
2023/04/16 10:24:31;;;;;;;2.17;1.70;;;11.40;99.90;;;;;;5061875;28;20381;-49
2023/04/16 10:26:59;;;;;;;2.03;1.60;;;11.40;99.90;;;;;;5050620;28;20476;-46
2023/04/16 10:29:28;;;;;;;2.40;1.60;;;11.40;99.90;;;;;;5050087;28;20049;-46
2023/04/16 10:31:55;;;;;;;2.33;1.67;;;11.40;99.90;;;;;;5050618;28;20099;-47
2023/04/16 10:34:23;;;;;;;1.90;1.20;;;11.40;99.90;;;;;;5058280;28;20378;-48
2023/04/16 10:36:52;;;;;;;2.28;1.58;;;11.40;99.90;;;;;;5067088;28;20044;-49
2023/04/16 10:39:23;;;;;;;1.60;1.38;;;11.50;99.90;;;;;;5069931;28;20066;-47
2023/04/16 10:42:09;;;;;;;2.83;1.27;;;11.20;99.90;;;;;;5070292;28;20072;-48
2023/04/16 10:44:36;;;;;;;1.73;1.55;;;11.20;99.90;;;;;;5059123;28;20105;-48
2023/04/16 10:47:11;;;;;;;2.58;1.52;;;11.20;99.90;;;;;;5055594;28;20037;-46
2023/04/16 10:49:38;;;;;;;1.75;1.00;;;11.60;99.90;;;;;;5048798;28;20033;-46
2023/04/16 10:52:21;;;;;;;1.85;0.90;;;11.90;99.90;;;;;;5067794;28;20053;-47
2023/04/16 10:54:48;;;;;;;0.98;0.70;;;11.90;99.90;;;;;;5056782;28;20033;-48
2023/04/16 10:57:17;;;;;;;1.33;0.77;;;12.30;99.90;;;;;;5049689;28;20048;-49
2023/04/16 10:59:44;;;;;;;1.42;0.80;;;12.50;99.90;;;;;;5049501;28;20545;-47
2023/04/16 11:02:16;;;;;;;0.60;0.60;;;13.10;99.90;;;;;;5052093;28;20551;-47
2023/04/16 11:04:44;;;;;;;1.30;0.68;;;13.40;99.90;;;;;;5054329;28;20401;-46
2023/04/16 11:07:18;;;;;;;0.88;0.60;;;13.20;99.90;;;;;;5053440;28;20056;-47
2023/04/16 11:09:50;;;;;;;0.88;0.80;;;13.20;99.90;;;;;;5062757;28;20044;-51
2023/04/16 11:12:22;;;;;;;0.88;0.70;;;13.40;99.90;;;;;;5070567;28;20041;-48
2023/04/16 11:14:53;;;;;;;0.60;0.60;;;13.30;99.90;;;;;;5054192;28;20444;-46
2023/04/16 11:17:21;;;;;;;0.50;0.50;;;13.40;99.90;;;;;;5055397;28;20048;-47
2023/04/16 11:19:48;;;;;;;0.65;0.50;;;13.50;99.90;;;;;;5066598;28;20091;-49
2023/04/16 11:22:16;;;;;;;0.80;0.75;;;13.40;99.90;;;;;;5054098;28;20041;-46
2023/04/16 11:24:44;;;;;;;0.65;0.60;;;13.20;99.90;;;;;;5053634;28;20106;-46
2023/04/16 11:27:13;;;;;;;0.60;0.40;;;13.20;99.90;;;;;;5054453;28;20045;-47
2023/04/16 11:29:40;;;;;;;0.52;0.50;;;13.00;99.90;;;;;;5066287;28;20549;-47
2023/04/16 11:32:07;;;;;;;0.63;0.30;;;12.90;99.90;;;;;;5072856;28;20078;-47
2023/04/16 11:34:41;;;;;;;0.32;0.32;;;12.90;99.90;;;;;;5065301;28;20110;-46
2023/04/16 11:37:08;;;;;;;0.85;0.47;;;12.70;99.90;;;;;;5060513;28;20048;-46
2023/04/16 11:39:50;;;;;;;0.77;0.60;;;12.80;99.90;;;;;;5069683;28;20036;-47
2023/04/16 11:42:25;;;;;;;0.68;0.60;;;12.90;99.90;;;;;;5064941;28;20049;-47
2023/04/16 11:44:54;;;;;;;0.52;0.52;;;12.90;99.90;;;;;;5072025;28;20519;-47
2023/04/16 11:47:24;;;;;;;0.50;0.50;;;13.00;99.90;;;;;;5067234;28;20079;-48
2023/04/16 11:49:51;;;;;;;0.43;0.40;;;12.90;99.90;;;;;;5065290;28;20128;-46
2023/04/16 11:52:26;;;;;;;;;;;12.60;99.90;;;;;;5057608;28;20124;-47
2023/04/16 11:54:53;;;;;;;0.98;0.43;;;12.70;99.90;;;;;;5055568;28;19934;-50
2023/04/16 11:57:30;;;;;;;1.05;0.55;;;12.50;99.90;;;;;;5063199;28;20570;-48
2023/04/16 11:59:58;;;;;;;1.27;0.40;;;12.50;99.90;;;;;;5071378;28;20044;-47
2023/04/16 12:02:48;;;;;;;0.75;0.35;;;12.60;99.90;;;;;;5071567;28;20555;-49
2023/04/16 12:05:30;;;;;;;0.32;0.30;;;12.60;99.90;;;;;;5063956;28;20505;-49
2023/04/16 12:07:58;;;;;;;0.70;0.50;;;13.40;99.90;;;;;;5070293;28;20040;-46
2023/04/16 12:10:26;;;;;;;0.35;0.35;;;13.30;99.90;;;;;;5067791;28;20489;-46
2023/04/16 12:12:52;;;;;;;0.90;0.40;;;13.40;99.90;;;;;;5065180;28;20070;-48
2023/04/16 12:15:19;;;;;;;0.43;0.40;;;13.30;99.90;;;;;;5069885;28;20037;-46
2023/04/16 12:17:46;;;;;;;1.23;0.50;;;13.40;99.90;;;;;;5067316;28;20033;-46
2023/04/16 12:20:14;;;;;;;;;;;13.70;99.90;;;;;;5068109;28;20400;-48
2023/04/16 12:22:46;;;;;;;0.40;0.40;;;13.70;99.90;;;;;;5072631;28;19920;-46
2023/04/16 12:25:15;;;;;;;0.40;0.40;;;13.60;99.90;;;;;;5069330;28;20045;-47
2023/04/16 12:27:46;;;;;;;0.30;0.30;;;13.50;99.90;;;;;;5066327;28;20040;-46
2023/04/16 12:30:15;;;;;;;0.68;0.30;;;13.40;99.90;;;;;;5042807;28;20152;-46
2023/04/16 12:32:43;;;;;;;0.50;0.40;;;13.40;99.90;;;;;;5072005;28;20048;-46
2023/04/16 12:35:11;;;;;;;0.43;0.40;;;13.60;99.90;;;;;;5067670;28;20047;-49
2023/04/16 12:37:38;;;;;;;0.55;0.40;;;13.70;99.90;;;;;;5067930;28;20044;-47
2023/04/16 12:40:05;;;;;;;;;;;13.70;99.90;;;;;;5072090;28;20036;-47
2023/04/16 12:42:36;;;;;;;0.40;0.40;;;13.40;99.90;;;;;;5066129;28;20601;-46
2023/04/16 12:45:04;;;;;;;0.43;0.43;;;13.30;99.90;;;;;;5068181;28;20048;-47
2023/04/16 12:47:31;;;;;;;2.08;0.20;;;13.30;99.90;;;;;;5069837;28;20129;-48
2023/04/16 12:49:58;;;;;;;;;;;13.30;99.90;;;;;;5067062;28;20119;-46
2023/04/16 12:52:25;;;;;;;0.20;0.20;;;13.20;99.90;;;;;;5071451;28;19920;-46
2023/04/16 12:54:52;;;;;;;0.68;0.20;;;12.90;99.90;;;;;;5079207;28;20535;-49
2023/04/16 12:57:18;;;;;;;0.30;0.28;;;12.70;99.90;;;;;;5060731;28;20061;-47
2023/04/16 12:59:45;;;;;;;0.77;0.25;;;12.70;99.90;;;;;;5051677;28;20045;-46